Time;durP1;ratioP1;P1;durP2;ratioP2;P2;SDS_P1;SDS_P2;PMS_P1;PMS_P2;Temp;Humidity;BMP_temperature;BMP_pressure;BME280_temperature;BME280_humidity;BME280_pressure;Samples;Min_cycle;Max_cycle;Signal;HPM_P1;HPM_P2
2023/07/09 00:00:01;;;;;;;1.40;1.30;;;;;22.10;96461.00;;;;5034606;28;20242;-56
2023/07/09 00:02:30;;;;;;;1.48;1.38;;;;;22.00;96465.00;;;;5034315;28;20212;-57
2023/07/09 00:04:59;;;;;;;0.82;0.82;;;;;21.90;96464.00;;;;5034569;28;20188;-56
2023/07/09 00:07:30;;;;;;;0.73;0.73;;;;;21.70;96463.00;;;;5034315;28;20185;-56
2023/07/09 00:09:58;;;;;;;1.00;1.00;;;;;21.70;96463.00;;;;5034233;28;20557;-56
2023/07/09 00:12:26;;;;;;;0.68;0.68;;;;;21.40;96470.00;;;;5034249;28;20718;-56
2023/07/09 00:14:54;;;;;;;1.10;1.10;;;;;21.40;96474.00;;;;5034690;28;20248;-56
2023/07/09 00:17:27;;;;;;;0.80;0.80;;;;;21.40;96466.00;;;;5034734;28;20246;-56
2023/07/09 00:19:55;;;;;;;1.58;1.42;;;;;21.40;96473.00;;;;5034310;28;20573;-56
2023/07/09 00:22:23;;;;;;;1.40;1.30;;;;;21.50;96478.00;;;;5033999;28;20208;-56
2023/07/09 00:24:51;;;;;;;1.30;1.30;;;;;21.40;96465.00;;;;5032605;28;20205;-56
2023/07/09 00:27:21;;;;;;;1.08;0.95;;;;;21.50;96473.00;;;;5033924;28;20189;-56
2023/07/09 00:29:48;;;;;;;1.67;1.58;;;;;21.40;96469.00;;;;5033761;28;20291;-56
2023/07/09 00:32:20;;;;;;;1.33;1.23;;;;;21.40;96467.00;;;;5033795;28;20193;-56
2023/07/09 00:34:49;;;;;;;0.70;0.70;;;;;21.30;96469.00;;;;5033770;28;20264;-56
2023/07/09 00:37:19;;;;;;;3.20;1.35;;;;;21.20;96476.00;;;;5032321;28;20201;-57
2023/07/09 00:39:47;;;;;;;0.90;0.90;;;;;21.20;96473.00;;;;5033651;28;20216;-56
2023/07/09 00:42:17;;;;;;;0.80;0.80;;;;;21.20;96479.00;;;;5034117;28;20201;-56
2023/07/09 00:44:46;;;;;;;1.83;1.23;;;;;21.30;96473.00;;;;5034276;28;20263;-57
2023/07/09 00:47:26;;;;;;;1.85;1.55;;;;;21.20;96467.00;;;;5033487;28;20203;-56
2023/07/09 00:50:09;;;;;;;4.38;1.02;;;;;21.20;96471.00;;;;5033473;28;20212;-56
2023/07/09 00:52:45;;;;;;;0.70;0.70;;;;;21.10;96476.00;;;;5033840;28;20185;-60
2023/07/09 00:55:16;;;;;;;1.25;1.25;;;;;21.20;96467.00;;;;5033704;28;20203;-55
2023/07/09 00:57:55;;;;;;;2.60;2.40;;;;;21.10;96475.00;;;;5033516;28;20215;-56
2023/07/09 01:00:28;;;;;;;1.55;0.85;;;;;21.00;96477.00;;;;5033310;28;20263;-56
2023/07/09 01:02:58;;;;;;;1.48;1.45;;;;;21.00;96483.00;;;;5033509;28;20690;-56
2023/07/09 01:05:25;;;;;;;1.65;1.55;;;;;20.90;96475.00;;;;5033584;28;20196;-56
2023/07/09 01:07:54;;;;;;;0.95;0.95;;;;;21.00;96483.00;;;;5033144;28;20192;-56
2023/07/09 01:10:21;;;;;;;1.45;1.02;;;;;21.00;96480.00;;;;5033202;28;20229;-56
2023/07/09 01:12:50;;;;;;;1.00;1.00;;;;;20.90;96486.00;;;;5033313;28;20200;-56
2023/07/09 01:15:18;;;;;;;1.27;1.23;;;;;20.90;96477.00;;;;5033184;28;20201;-56
2023/07/09 01:17:45;;;;;;;1.65;1.55;;;;;20.80;96485.00;;;;5033217;28;20223;-56
2023/07/09 01:20:20;;;;;;;1.23;1.23;;;;;20.80;96487.00;;;;5033538;28;20212;-56
2023/07/09 01:22:54;;;;;;;1.85;1.15;;;;;20.70;96489.00;;;;5033300;28;20172;-56
2023/07/09 01:25:22;;;;;;;0.90;0.90;;;;;20.80;96487.00;;;;5033024;28;20189;-56
2023/07/09 01:27:50;;;;;;;0.88;0.88;;;;;20.70;96487.00;;;;5032953;28;20185;-56
2023/07/09 01:30:22;;;;;;;1.05;1.05;;;;;20.60;96488.00;;;;5033184;28;20216;-55
2023/07/09 01:32:49;;;;;;;0.65;0.65;;;;;20.50;96488.00;;;;5033122;28;20192;-56
2023/07/09 01:35:18;;;;;;;1.52;1.42;;;;;20.50;96491.00;;;;5032852;28;20767;-56
2023/07/09 01:37:47;;;;;;;0.55;0.55;;;;;20.50;96483.00;;;;5032969;28;20224;-56
2023/07/09 01:40:19;;;;;;;0.70;0.70;;;;;20.50;96480.00;;;;5031438;28;20243;-56
2023/07/09 01:42:47;;;;;;;1.63;1.52;;;;;20.50;96483.00;;;;5032770;28;20181;-55
2023/07/09 01:45:15;;;;;;;1.02;1.02;;;;;20.30;96483.00;;;;5032804;28;20200;-55
2023/07/09 01:47:43;;;;;;;0.85;0.85;;;;;20.30;96477.00;;;;5033008;28;20549;-56
2023/07/09 01:50:12;;;;;;;0.70;0.70;;;;;20.20;96476.00;;;;5032693;28;20212;-56
2023/07/09 01:52:42;;;;;;;1.98;1.30;;;;;20.20;96473.00;;;;5032673;28;20652;-56
2023/07/09 01:55:11;;;;;;;1.50;1.40;;;;;20.30;96465.00;;;;5032909;28;20208;-56
2023/07/09 01:57:40;;;;;;;1.30;0.85;;;;;20.20;96469.00;;;;5032486;28;20196;-56
2023/07/09 02:00:11;;;;;;;0.73;0.73;;;;;20.20;96472.00;;;;5032529;28;20224;-56
2023/07/09 02:02:42;;;;;;;1.60;1.50;;;;;20.20;96466.00;;;;5032624;28;20204;-56
2023/07/09 02:05:10;;;;;;;1.10;1.10;;;;;20.10;96467.00;;;;5031609;28;20216;-56
2023/07/09 02:07:38;;;;;;;0.70;0.70;;;;;20.00;96471.00;;;;5032940;28;20254;-56
2023/07/09 02:10:06;;;;;;;0.77;0.77;;;;;20.00;96470.00;;;;5033854;28;20220;-57
2023/07/09 02:12:34;;;;;;;0.80;0.80;;;;;20.10;96469.00;;;;5036716;28;20185;-55
2023/07/09 02:15:03;;;;;;;1.55;1.27;;;;;20.10;96471.00;;;;5036662;28;20195;-57
2023/07/09 02:17:30;;;;;;;0.80;0.80;;;;;20.00;96480.00;;;;5036665;28;20204;-56
2023/07/09 02:19:58;;;;;;;2.30;1.13;;;;;19.90;96477.00;;;;5036266;28;20209;-57
2023/07/09 02:22:25;;;;;;;2.28;1.48;;;;;19.80;96472.00;;;;5036282;28;20193;-56
2023/07/09 02:24:53;;;;;;;1.05;1.05;;;;;19.70;96470.00;;;;5036473;28;20204;-56
2023/07/09 02:27:21;;;;;;;1.67;1.38;;;;;19.70;96476.00;;;;5036258;28;20224;-57
2023/07/09 02:29:49;;;;;;;0.70;0.70;;;;;19.80;96474.00;;;;5036015;28;20213;-56
2023/07/09 02:32:22;;;;;;;1.13;1.13;;;;;19.80;96475.00;;;;5035980;28;20533;-56
2023/07/09 02:34:52;;;;;;;1.02;1.02;;;;;19.70;96483.00;;;;5035788;28;20189;-56
2023/07/09 02:37:22;;;;;;;0.85;0.85;;;;;19.80;96479.00;;;;5036111;28;20192;-56
2023/07/09 02:39:50;;;;;;;1.38;1.27;;;;;19.80;96473.00;;;;5035626;28;20232;-56
2023/07/09 02:42:19;;;;;;;1.43;1.33;;;;;19.80;96471.00;;;;5036352;28;20208;-56
2023/07/09 02:44:47;;;;;;;1.33;1.30;;;;;19.90;96474.00;;;;5036307;28;20200;-56
2023/07/09 02:47:15;;;;;;;0.90;0.90;;;;;19.80;96480.00;;;;5034518;28;20208;-56
2023/07/09 02:49:44;;;;;;;1.07;1.07;;;;;19.80;96485.00;;;;5035903;28;20197;-56
2023/07/09 02:52:11;;;;;;;1.53;1.43;;;;;19.60;96490.00;;;;5035684;28;20199;-56
2023/07/09 02:54:39;;;;;;;1.53;1.43;;;;;19.50;96489.00;;;;5035682;28;20196;-56
2023/07/09 02:57:07;;;;;;;1.10;1.10;;;;;19.40;96494.00;;;;5035591;28;20686;-56
2023/07/09 02:59:35;;;;;;;1.57;1.33;;;;;19.30;96487.00;;;;5035901;28;20228;-56
2023/07/09 03:02:03;;;;;;;1.30;1.27;;;;;19.30;96494.00;;;;5034201;28;20317;-56
2023/07/09 03:04:32;;;;;;;0.87;0.87;;;;;19.20;96489.00;;;;5034184;28;20228;-56
2023/07/09 03:07:01;;;;;;;1.43;1.40;;;;;19.30;96484.00;;;;5035689;28;20196;-56
2023/07/09 03:09:28;;;;;;;1.07;0.87;;;;;19.20;96493.00;;;;5035304;28;20188;-56
2023/07/09 03:11:56;;;;;;;0.47;0.47;;;;;19.40;96493.00;;;;5035250;28;20275;-57
2023/07/09 03:14:23;;;;;;;1.07;1.07;;;;;19.40;96491.00;;;;5034894;28;20204;-56
2023/07/09 03:16:50;;;;;;;0.77;0.77;;;;;19.30;96492.00;;;;5035290;28;20598;-55
2023/07/09 03:19:18;;;;;;;0.53;0.53;;;;;19.30;96487.00;;;;5035141;28;20282;-55
2023/07/09 03:21:45;;;;;;;1.00;1.00;;;;;19.20;96495.00;;;;5034274;28;20220;-55
2023/07/09 03:24:18;;;;;;;4.97;1.13;;;;;19.20;96494.00;;;;5035377;28;20259;-55
2023/07/09 03:26:46;;;;;;;1.10;1.00;;;;;19.10;96493.00;;;;5035563;28;20181;-56
2023/07/09 03:29:13;;;;;;;1.57;1.47;;;;;19.00;96499.00;;;;5035791;28;20254;-56
2023/07/09 03:31:41;;;;;;;1.07;1.07;;;;;18.90;96501.00;;;;5035117;28;20280;-56
2023/07/09 03:34:08;;;;;;;0.90;0.90;;;;;18.90;96501.00;;;;5033866;28;20579;-56
2023/07/09 03:36:37;;;;;;;0.90;0.90;;;;;18.80;96496.00;;;;5034970;28;20193;-56
2023/07/09 03:39:04;;;;;;;2.70;1.47;;;;;19.00;96495.00;;;;5035046;28;20687;-56
2023/07/09 03:41:33;;;;;;;2.10;2.00;;;;;19.00;96499.00;;;;5034910;28;20209;-56
2023/07/09 03:44:01;;;;;;;1.37;1.30;;;;;18.90;96504.00;;;;5034982;28;20594;-56
2023/07/09 03:46:28;;;;;;;1.53;1.43;;;;;19.00;96499.00;;;;5034715;28;20192;-55
2023/07/09 03:48:56;;;;;;;0.73;0.73;;;;;18.80;96502.00;;;;5034912;28;20193;-56
2023/07/09 03:51:23;;;;;;;0.70;0.70;;;;;18.70;96497.00;;;;5035018;28;20227;-56
2023/07/09 03:53:50;;;;;;;2.47;1.23;;;;;18.70;96500.00;;;;5034842;28;20640;-56
2023/07/09 03:56:18;;;;;;;1.17;1.17;;;;;18.80;96502.00;;;;5034554;28;20200;-57
2023/07/09 03:58:47;;;;;;;1.90;1.80;;;;;18.70;96507.00;;;;5033681;28;20220;-56
2023/07/09 04:01:16;;;;;;;2.23;1.50;;;;;18.80;96499.00;;;;5034401;28;20213;-56
2023/07/09 04:03:43;;;;;;;1.83;1.43;;;;;18.70;96500.00;;;;5034383;28;20193;-57
2023/07/09 04:06:11;;;;;;;1.10;1.03;;;;;18.70;96506.00;;;;5034373;28;20197;-56
2023/07/09 04:08:38;;;;;;;1.97;1.87;;;;;18.80;96509.00;;;;5034326;28;20216;-57
2023/07/09 04:11:05;;;;;;;0.90;0.90;;;;;18.90;96514.00;;;;5034176;28;20270;-57
2023/07/09 04:13:33;;;;;;;1.07;1.07;;;;;18.90;96498.00;;;;5034706;28;20216;-56
2023/07/09 04:16:02;;;;;;;0.70;0.70;;;;;19.10;96502.00;;;;5034635;28;20220;-56
2023/07/09 04:18:29;;;;;;;1.43;1.37;;;;;19.20;96499.00;;;;5034070;28;20201;-56
2023/07/09 04:20:57;;;;;;;1.10;1.10;;;;;19.10;96511.00;;;;5034007;28;20213;-56
2023/07/09 04:23:24;;;;;;;2.77;1.90;;;;;18.60;96510.00;;;;5034259;28;20609;-56
2023/07/09 04:25:51;;;;;;;1.27;1.07;;;;;18.80;96517.00;;;;5034020;28;20197;-56
2023/07/09 04:28:19;;;;;;;0.60;0.60;;;;;18.90;96514.00;;;;5034229;28;20557;-56
2023/07/09 04:30:50;;;;;;;17.90;1.53;;;;;19.10;96503.00;;;;5033753;28;20224;-56
2023/07/09 04:33:20;;;;;;;1.30;1.30;;;;;19.10;96507.00;;;;5033747;28;20538;-56
2023/07/09 04:35:48;;;;;;;0.87;0.87;;;;;19.10;96514.00;;;;5033832;28;20191;-56
2023/07/09 04:38:16;;;;;;;1.33;1.23;;;;;19.10;96517.00;;;;5033985;28;20559;-56
2023/07/09 04:40:43;;;;;;;1.40;1.30;;;;;19.00;96512.00;;;;5033566;28;20216;-56
2023/07/09 04:43:11;;;;;;;1.10;1.10;;;;;19.20;96518.00;;;;5032393;28;20227;-56
2023/07/09 04:45:38;;;;;;;1.40;1.30;;;;;19.30;96517.00;;;;5033550;28;20204;-56
2023/07/09 04:48:06;;;;;;;0.90;0.90;;;;;19.40;96515.00;;;;5033686;28;20203;-56
2023/07/09 04:50:35;;;;;;;1.77;1.67;;;;;19.40;96521.00;;;;5033387;28;20205;-56
2023/07/09 04:53:03;;;;;;;1.03;1.03;;;;;19.50;96520.00;;;;5033679;28;20196;-56
2023/07/09 04:55:30;;;;;;;1.63;1.53;;;;;19.50;96520.00;;;;5033420;28;20193;-56
2023/07/09 04:57:58;;;;;;;0.97;0.97;;;;;19.60;96521.00;;;;5033453;28;20192;-56
2023/07/09 05:00:25;;;;;;;1.80;1.70;;;;;19.60;96519.00;;;;5031963;28;20229;-57
2023/07/09 05:02:53;;;;;;;1.00;1.00;;;;;19.70;96518.00;;;;5033563;28;20193;-56
2023/07/09 05:05:20;;;;;;;1.20;1.20;;;;;19.80;96527.00;;;;5033518;28;20200;-57
2023/07/09 05:07:49;;;;;;;1.07;1.07;;;;;19.90;96524.00;;;;5033226;28;20202;-56
2023/07/09 05:10:16;;;;;;;0.70;0.70;;;;;19.90;96520.00;;;;5032837;28;20271;-57
2023/07/09 05:12:55;;;;;;;0.50;0.50;;;;;20.10;96524.00;;;;5032713;28;20189;-56
2023/07/09 05:15:24;;;;;;;1.53;1.43;;;;;20.00;96533.00;;;;5032959;28;20545;-56
2023/07/09 05:17:52;;;;;;;0.73;0.73;;;;;19.80;96524.00;;;;5032341;28;20193;-56
2023/07/09 05:20:21;;;;;;;1.60;1.33;;;;;19.80;96526.00;;;;5032150;28;20695;-56
2023/07/09 05:22:50;;;;;;;1.07;1.07;;;;;19.70;96533.00;;;;5032527;28;20645;-56
2023/07/09 05:25:17;;;;;;;1.63;1.53;;;;;19.70;96533.00;;;;5032231;28;20199;-57
2023/07/09 05:27:45;;;;;;;1.23;1.23;;;;;19.80;96527.00;;;;5030894;28;20213;-56
2023/07/09 05:30:13;;;;;;;1.23;1.20;;;;;19.80;96534.00;;;;5032149;28;20208;-56
2023/07/09 05:32:40;;;;;;;0.90;0.90;;;;;19.90;96533.00;;;;5030839;28;20201;-56
2023/07/09 05:35:09;;;;;;;1.17;1.17;;;;;20.10;96535.00;;;;5032121;28;20275;-56
2023/07/09 05:37:37;;;;;;;1.03;1.03;;;;;20.00;96531.00;;;;5032343;28;20605;-57
2023/07/09 05:40:07;;;;;;;0.80;0.80;;;;;20.10;96540.00;;;;5030589;28;20234;-56
2023/07/09 05:42:35;;;;;;;1.27;1.17;;;;;20.20;96521.00;;;;5032251;28;20199;-56
2023/07/09 05:45:02;;;;;;;0.93;0.93;;;;;20.40;96531.00;;;;5032975;28;20189;-56
2023/07/09 05:47:30;;;;;;;0.93;0.93;;;;;20.60;96526.00;;;;5035577;28;20192;-56
2023/07/09 05:49:57;;;;;;;1.13;1.10;;;;;20.70;96528.00;;;;5034203;28;20212;-56
2023/07/09 05:52:25;;;;;;;1.77;1.67;;;;;20.60;96530.00;;;;5035751;28;20201;-56
2023/07/09 05:54:53;;;;;;;4.07;2.17;;;;;20.60;96529.00;;;;5035419;28;20702;-56
2023/07/09 05:57:22;;;;;;;1.65;1.55;;;;;20.70;96523.00;;;;5035383;28;20754;-56
2023/07/09 05:59:49;;;;;;;2.27;2.07;;;;;20.50;96528.00;;;;5035316;28;20224;-56
2023/07/09 06:02:20;;;;;;;1.42;1.40;;;;;20.50;96534.00;;;;5035341;28;20192;-56
2023/07/09 06:04:49;;;;;;;2.83;1.77;;;;;20.80;96535.00;;;;5035362;28;20177;-56
2023/07/09 06:07:18;;;;;;;1.10;1.10;;;;;20.90;96535.00;;;;5035495;28;20189;-56
2023/07/09 06:09:46;;;;;;;1.23;1.17;;;;;21.40;96532.00;;;;4997434;28;1083285;-56
2023/07/09 06:12:13;;;;;;;1.35;1.20;;;;;21.30;96533.00;;;;5037089;28;20185;-56
2023/07/09 06:14:42;;;;;;;1.13;1.13;;;;;21.30;96533.00;;;;5036725;28;20192;-56
2023/07/09 06:17:10;;;;;;;0.73;0.73;;;;;21.30;96533.00;;;;5036410;28;20193;-56
2023/07/09 06:19:38;;;;;;;2.33;1.98;;;;;21.40;96535.00;;;;5036260;28;20220;-56
2023/07/09 06:22:06;;;;;;;0.93;0.93;;;;;21.60;96536.00;;;;5036266;28;20188;-57
2023/07/09 06:24:33;;;;;;;4.60;2.08;;;;;21.90;96541.00;;;;5036241;28;20200;-57
2023/07/09 06:27:01;;;;;;;1.45;1.35;;;;;21.90;96532.00;;;;5034977;28;20279;-57
2023/07/09 06:29:28;;;;;;;2.00;1.90;;;;;22.00;96530.00;;;;5036135;28;20193;-57
2023/07/09 06:31:57;;;;;;;0.90;0.90;;;;;22.00;96526.00;;;;5036040;28;20223;-57
2023/07/09 06:34:24;;;;;;;1.05;1.05;;;;;22.10;96530.00;;;;5036296;28;20193;-57
2023/07/09 06:36:52;;;;;;;1.00;1.00;;;;;22.20;96529.00;;;;5036382;28;20203;-57
2023/07/09 06:39:20;;;;;;;1.35;1.25;;;;;22.50;96529.00;;;;5036389;28;20217;-57
2023/07/09 06:41:47;;;;;;;1.52;1.42;;;;;22.50;96525.00;;;;5035944;28;20337;-58
2023/07/09 06:44:15;;;;;;;1.30;1.20;;;;;22.50;96530.00;;;;5035954;28;20593;-56
2023/07/09 06:46:42;;;;;;;1.20;1.10;;;;;22.60;96530.00;;;;5035950;28;20289;-56
2023/07/09 06:49:11;;;;;;;1.88;1.55;;;;;22.80;96522.00;;;;5035782;28;20193;-56
2023/07/09 06:51:38;;;;;;;0.77;0.77;;;;;22.80;96527.00;;;;5035645;28;20216;-56
2023/07/09 06:54:08;;;;;;;17.40;1.08;;;;;22.90;96526.00;;;;5035901;28;20192;-55
2023/07/09 06:56:36;;;;;;;1.85;1.75;;;;;23.20;96528.00;;;;5035836;28;20204;-55
2023/07/09 06:59:03;;;;;;;0.70;0.70;;;;;23.30;96527.00;;;;5035625;28;20193;-55
2023/07/09 07:01:31;;;;;;;1.27;1.27;;;;;23.40;96532.00;;;;5035419;28;20212;-56
2023/07/09 07:03:58;;;;;;;0.73;0.73;;;;;23.50;96521.00;;;;5035588;28;20555;-56
2023/07/09 07:06:27;;;;;;;1.67;1.15;;;;;23.70;96531.00;;;;5035469;28;20203;-56
2023/07/09 07:08:55;;;;;;;1.75;1.17;;;;;23.90;96526.00;;;;5035410;28;20197;-56
2023/07/09 07:11:22;;;;;;;1.45;1.35;;;;;24.10;96522.00;;;;5035398;28;20212;-57
2023/07/09 07:13:51;;;;;;;7.78;1.30;;;;;24.30;96519.00;;;;5035637;28;20196;-56
2023/07/09 07:16:18;;;;;;;1.67;1.10;;;;;24.50;96522.00;;;;5033984;28;20200;-57
2023/07/09 07:18:46;;;;;;;1.50;1.40;;;;;24.70;96520.00;;;;5035281;28;20196;-57
2023/07/09 07:21:13;;;;;;;1.00;1.00;;;;;24.90;96519.00;;;;5033848;28;20221;-61
2023/07/09 07:23:42;;;;;;;0.57;0.57;;;;;25.00;96512.00;;;;5035478;28;20559;-57
2023/07/09 07:26:09;;;;;;;7.60;1.70;;;;;25.10;96506.00;;;;5035114;28;20189;-57
2023/07/09 07:28:37;;;;;;;0.70;0.70;;;;;25.30;96510.00;;;;5035504;28;20243;-57
2023/07/09 07:31:07;;;;;;;0.60;0.60;;;;;25.50;96507.00;;;;5035190;28;20304;-57
2023/07/09 07:33:35;;;;;;;2.40;1.00;;;;;25.70;96510.00;;;;5035705;28;20197;-57
2023/07/09 07:36:04;;;;;;;1.42;1.40;;;;;25.80;96511.00;;;;5035042;28;20279;-57
2023/07/09 07:38:32;;;;;;;1.13;1.10;;;;;26.00;96510.00;;;;5034810;28;20197;-58
2023/07/09 07:41:01;;;;;;;0.90;0.90;;;;;26.10;96510.00;;;;5034665;28;20283;-57
2023/07/09 07:43:29;;;;;;;2.50;1.00;;;;;26.30;96511.00;;;;5034715;28;20196;-58
2023/07/09 07:45:57;;;;;;;1.27;1.27;;;;;26.40;96514.00;;;;5034725;28;20205;-57
2023/07/09 07:48:24;;;;;;;0.90;0.90;;;;;26.50;96505.00;;;;5034672;28;20290;-57
2023/07/09 07:50:51;;;;;;;1.40;1.30;;;;;26.60;96503.00;;;;5034808;28;20228;-57
2023/07/09 07:53:19;;;;;;;0.85;0.85;;;;;26.70;96499.00;;;;5034603;28;20196;-56
2023/07/09 07:55:46;;;;;;;1.13;1.13;;;;;26.90;96502.00;;;;5033477;28;20208;-57
2023/07/09 07:58:15;;;;;;;0.80;0.80;;;;;26.90;96503.00;;;;5034679;28;20582;-56
2023/07/09 08:00:43;;;;;;;0.80;0.80;;;;;27.10;96504.00;;;;5033292;28;20592;-56
2023/07/09 08:03:10;;;;;;;1.63;1.52;;;;;27.20;96503.00;;;;5034902;28;20189;-57
2023/07/09 08:05:38;;;;;;;1.05;1.05;;;;;27.40;96505.00;;;;5034381;28;20204;-56
2023/07/09 08:08:05;;;;;;;0.70;0.70;;;;;27.70;96507.00;;;;5032371;28;20239;-57
2023/07/09 08:10:33;;;;;;;1.13;0.95;;;;;27.60;96500.00;;;;5034071;28;20216;-56
2023/07/09 08:13:00;;;;;;;1.45;1.35;;;;;27.60;96506.00;;;;5032918;28;20687;-56
2023/07/09 08:15:29;;;;;;;1.02;1.02;;;;;27.80;96497.00;;;;5034205;28;20196;-57
2023/07/09 08:17:57;;;;;;;1.50;1.40;;;;;27.90;96505.00;;;;5034038;28;20193;-59
2023/07/09 08:20:24;;;;;;;1.02;1.02;;;;;28.10;96509.00;;;;5033923;28;20263;-56
2023/07/09 08:22:52;;;;;;;1.85;1.75;;;;;28.10;96506.00;;;;5033985;28;20189;-58
2023/07/09 08:25:19;;;;;;;1.00;1.00;;;;;28.20;96475.00;;;;5034017;28;20246;-57
2023/07/09 08:27:47;;;;;;;0.70;0.70;;;;;28.20;96504.00;;;;5034216;28;20552;-56
2023/07/09 08:30:14;;;;;;;0.90;0.90;;;;;28.30;96505.00;;;;5034061;28;20290;-56
2023/07/09 08:32:43;;;;;;;1.05;1.05;;;;;28.50;96503.00;;;;5033589;28;20283;-57
2023/07/09 08:35:12;;;;;;;1.17;1.08;;;;;28.40;96506.00;;;;5033699;28;20200;-56
2023/07/09 08:37:39;;;;;;;0.95;0.95;;;;;28.50;96505.00;;;;5034030;28;20580;-57
2023/07/09 08:40:10;;;;;;;0.73;0.73;;;;;28.50;96504.00;;;;5033667;28;20265;-56
2023/07/09 08:42:43;;;;;;;1.58;1.25;;;;;28.70;96503.00;;;;5034476;28;20544;-56
2023/07/09 08:45:22;;;;;;;0.77;0.77;;;;;28.70;96509.00;;;;5034059;28;20192;-56
2023/07/09 08:47:59;;;;;;;1.48;1.38;;;;;28.70;96513.00;;;;5033852;28;20188;-56
2023/07/09 08:50:33;;;;;;;0.70;0.70;;;;;28.60;96508.00;;;;5033825;28;20205;-56
2023/07/09 08:53:01;;;;;;;0.60;0.60;;;;;28.70;96508.00;;;;5033799;28;20192;-56
2023/07/09 08:55:38;;;;;;;1.08;1.08;;;;;28.90;96516.00;;;;5033760;28;20215;-56
2023/07/09 08:58:11;;;;;;;1.23;1.13;;;;;29.00;96509.00;;;;5033637;28;20181;-57
2023/07/09 09:00:45;;;;;;;1.00;1.00;;;;;28.90;96513.00;;;;5031927;28;20688;-56
2023/07/09 09:03:24;;;;;;;0.77;0.77;;;;;28.90;96515.00;;;;5033911;28;20189;-56
2023/07/09 09:05:51;;;;;;;0.95;0.95;;;;;29.00;96507.00;;;;5033604;28;20211;-56
2023/07/09 09:08:32;;;;;;;1.33;1.23;;;;;29.10;96513.00;;;;5033494;28;20197;-56
2023/07/09 09:11:04;;;;;;;0.80;0.80;;;;;29.40;96519.00;;;;5033121;28;20227;-56
2023/07/09 09:13:32;;;;;;;1.23;1.15;;;;;29.40;96515.00;;;;5033457;28;20189;-56
2023/07/09 09:16:07;;;;;;;0.90;0.90;;;;;29.20;96523.00;;;;5033123;28;20200;-56
2023/07/09 09:18:42;;;;;;;1.60;1.55;;;;;29.50;96514.00;;;;5033171;28;20187;-56
2023/07/09 09:21:16;;;;;;;1.23;1.23;;;;;29.70;96515.00;;;;5033233;28;20220;-56
2023/07/09 09:23:49;;;;;;;1.00;1.00;;;;;29.80;96511.00;;;;5033651;28;20184;-57
2023/07/09 09:26:22;;;;;;;0.70;0.70;;;;;29.60;96522.00;;;;5033940;28;20181;-56
2023/07/09 09:28:49;;;;;;;1.05;1.00;;;;;29.50;96525.00;;;;5033275;28;20181;-56
2023/07/09 09:31:18;;;;;;;0.80;0.80;;;;;29.90;96521.00;;;;5033163;28;20278;-55
2023/07/09 09:33:50;;;;;;;0.82;0.82;;;;;29.90;96518.00;;;;5032968;28;20279;-55
2023/07/09 09:36:20;;;;;;;0.93;0.93;;;;;30.00;96517.00;;;;5033070;28;20675;-55
2023/07/09 09:38:50;;;;;;;1.02;1.02;;;;;30.00;96516.00;;;;5033153;28;20204;-55
2023/07/09 09:41:26;;;;;;;0.80;0.80;;;;;30.30;96515.00;;;;5033404;28;20220;-55
2023/07/09 09:43:56;;;;;;;0.90;0.90;;;;;30.30;96515.00;;;;5033057;28;20235;-56
2023/07/09 09:46:26;;;;;;;0.90;0.90;;;;;30.30;96508.00;;;;5032868;28;20215;-56
2023/07/09 09:48:59;;;;;;;1.23;1.13;;;;;30.40;96498.00;;;;5033627;28;20288;-56
2023/07/09 09:51:27;;;;;;;1.05;1.00;;;;;30.70;96500.00;;;;5032770;28;20219;-55
2023/07/09 09:54:02;;;;;;;1.20;1.15;;;;;30.60;96500.00;;;;5032664;28;20239;-55
2023/07/09 09:56:31;;;;;;;1.80;1.27;;;;;30.70;96500.00;;;;5032970;28;20177;-55
2023/07/09 09:59:00;;;;;;;1.20;1.15;;;;;31.00;96496.00;;;;5031442;28;20197;-55
2023/07/09 10:01:30;;;;;;;1.52;1.42;;;;;31.10;96495.00;;;;5032492;28;20726;-56
2023/07/09 10:04:00;;;;;;;0.82;0.82;;;;;31.20;96499.00;;;;5031376;28;20203;-56
2023/07/09 10:06:35;;;;;;;0.90;0.90;;;;;31.10;96502.00;;;;5032954;28;20188;-56
2023/07/09 10:09:09;;;;;;;1.08;1.08;;;;;31.00;96501.00;;;;5032900;28;20183;-55
2023/07/09 10:11:48;;;;;;;1.23;1.13;;;;;31.10;96505.00;;;;5031199;28;20219;-55
2023/07/09 10:14:33;;;;;;;0.90;0.90;;;;;31.20;96490.00;;;;5032606;28;20242;-55
2023/07/09 10:17:06;;;;;;;1.20;1.10;;;;;31.30;96489.00;;;;5031295;28;20615;-55
2023/07/09 10:19:40;;;;;;;1.15;0.98;;;;;31.40;96495.00;;;;5032488;28;20181;-55
2023/07/09 10:22:13;;;;;;;1.40;1.30;;;;;31.40;96484.00;;;;5031170;28;20216;-55
2023/07/09 10:24:52;;;;;;;1.17;1.17;;;;;31.50;96480.00;;;;5033041;28;20185;-56
2023/07/09 10:27:29;;;;;;;0.80;0.80;;;;;31.60;96487.00;;;;5032627;28;20189;-55
2023/07/09 10:30:14;;;;;;;0.52;0.52;;;;;31.60;96491.00;;;;5032695;28;20576;-56
2023/07/09 10:32:50;;;;;;;0.90;0.90;;;;;31.90;96476.00;;;;5036233;28;20204;-57
2023/07/09 10:35:26;;;;;;;1.27;1.13;;;;;32.00;96475.00;;;;5036064;28;20197;-56
2023/07/09 10:38:03;;;;;;;1.10;1.10;;;;;31.90;96477.00;;;;5036181;28;20181;-55
2023/07/09 10:40:36;;;;;;;0.93;0.93;;;;;31.90;96473.00;;;;5034945;28;20676;-56
2023/07/09 10:43:06;;;;;;;3.53;1.50;;;;;32.20;96470.00;;;;5035957;28;20200;-55
2023/07/09 10:45:40;;;;;;;1.08;0.93;;;;;32.30;96465.00;;;;5036129;28;20271;-55
2023/07/09 10:48:13;;;;;;;1.15;1.15;;;;;32.30;96478.00;;;;5036206;28;20185;-55
2023/07/09 10:50:46;;;;;;;1.08;1.08;;;;;32.40;96475.00;;;;5036281;28;20208;-55
2023/07/09 10:53:23;;;;;;;0.90;0.90;;;;;32.50;96468.00;;;;5036050;28;20188;-56
2023/07/09 10:55:56;;;;;;;1.17;1.05;;;;;32.60;96472.00;;;;5035916;28;20195;-55
2023/07/09 10:58:34;;;;;;;1.20;1.10;;;;;32.70;96471.00;;;;5036011;28;20181;-55
2023/07/09 11:01:01;;;;;;;2.00;1.88;;;;;32.60;96469.00;;;;5034196;28;20216;-55
2023/07/09 11:03:42;;;;;;;2.00;1.35;;;;;32.90;96460.00;;;;5034150;28;20201;-55
2023/07/09 11:06:20;;;;;;;1.60;1.20;;;;;33.00;96461.00;;;;5035764;28;20192;-56
2023/07/09 11:08:51;;;;;;;0.85;0.85;;;;;32.80;96476.00;;;;5035528;28;20203;-56
2023/07/09 11:11:30;;;;;;;2.50;1.65;;;;;33.00;96469.00;;;;5035551;28;20315;-55
2023/07/09 11:14:01;;;;;;;0.93;0.93;;;;;32.70;96464.00;;;;5035377;28;20191;-56
2023/07/09 11:16:33;;;;;;;1.10;1.10;;;;;32.60;96460.00;;;;5035318;28;20188;-57
2023/07/09 11:19:05;;;;;;;1.67;1.55;;;;;32.80;96454.00;;;;5035839;28;20185;-55
2023/07/09 11:21:33;;;;;;;1.70;1.42;;;;;33.30;96454.00;;;;5035149;28;20745;-55
2023/07/09 11:24:02;;;;;;;1.15;1.05;;;;;33.30;96443.00;;;;5033943;28;20189;-55
2023/07/09 11:26:32;;;;;;;1.00;1.00;;;;;33.70;96451.00;;;;5035180;28;20204;-55
2023/07/09 11:29:15;;;;;;;0.85;0.85;;;;;33.80;96452.00;;;;5035135;28;20189;-55
2023/07/09 11:31:46;;;;;;;2.55;1.85;;;;;34.00;96455.00;;;;5033734;28;20220;-55
2023/07/09 11:34:19;;;;;;;0.88;0.88;;;;;34.00;96453.00;;;;5035344;28;20268;-55
2023/07/09 11:36:57;;;;;;;1.00;1.00;;;;;34.10;96454.00;;;;5033718;28;20562;-55
2023/07/09 11:39:32;;;;;;;1.05;1.05;;;;;34.20;96454.00;;;;5034899;28;20184;-55
2023/07/09 11:42:00;;;;;;;1.35;1.30;;;;;34.30;96453.00;;;;5034188;28;20258;-55
2023/07/09 11:44:29;;;;;;;0.90;0.90;;;;;34.20;96445.00;;;;5033095;28;20295;-55
2023/07/09 11:47:19;;;;;;;0.98;0.98;;;;;34.30;96443.00;;;;5035036;28;20295;-57
2023/07/09 11:49:51;;;;;;;0.70;0.70;;;;;34.60;96437.00;;;;5034334;28;20228;-56
2023/07/09 11:52:26;;;;;;;0.82;0.82;;;;;34.80;96438.00;;;;5034570;28;20181;-56
2023/07/09 11:54:54;;;;;;;1.00;1.00;;;;;34.90;96444.00;;;;5034846;28;20272;-56
2023/07/09 11:57:21;;;;;;;1.77;1.67;;;;;35.10;96444.00;;;;5034535;28;20201;-56
2023/07/09 11:59:49;;;;;;;0.90;0.90;;;;;35.20;96437.00;;;;5033168;28;20221;-57
2023/07/09 12:02:19;;;;;;;0.90;0.90;;;;;35.50;96429.00;;;;5033078;28;20751;-56
2023/07/09 12:04:51;;;;;;;1.00;1.00;;;;;35.60;96435.00;;;;5034690;28;20181;-56
2023/07/09 12:07:24;;;;;;;1.77;1.65;;;;;35.70;96435.00;;;;5034627;28;20177;-56
2023/07/09 12:09:53;;;;;;;1.38;1.27;;;;;35.30;96434.00;;;;5034298;28;20209;-56
2023/07/09 12:12:22;;;;;;;1.00;0.93;;;;;35.50;96432.00;;;;5034260;28;20184;-56
2023/07/09 12:14:50;;;;;;;1.25;1.15;;;;;35.70;96426.00;;;;5034239;28;20192;-56
2023/07/09 12:17:18;;;;;;;2.22;1.58;;;;;35.60;96428.00;;;;5034241;28;20193;-56
2023/07/09 12:19:45;;;;;;;1.00;1.00;;;;;35.60;96423.00;;;;5034105;28;20216;-58
2023/07/09 12:22:22;;;;;;;2.47;1.63;;;;;34.60;96419.00;;;;5034051;28;20224;-57
2023/07/09 12:24:51;;;;;;;1.40;1.30;;;;;35.00;96423.00;;;;5032974;28;20189;-57
2023/07/09 12:27:25;;;;;;;0.85;0.85;;;;;35.30;96420.00;;;;5034268;28;20189;-56
2023/07/09 12:29:55;;;;;;;1.88;1.38;;;;;35.70;96408.00;;;;5034172;28;20657;-56